Time;durP1;ratioP1;P1;durP2;ratioP2;P2;SDS_P1;SDS_P2;PMS_P1;PMS_P2;Temp;Humidity;BMP_temperature;BMP_pressure;BME280_temperature;BME280_humidity;BME280_pressure;Samples;Min_cycle;Max_cycle;Signal;HPM_P1;HPM_P2
2022/12/22 03:26:50;;;;;;;38.40;24.73;;;9.20;90.20;;;;;;6338721;22;20373;-79
2022/12/22 03:29:16;;;;;;;35.28;24.45;;;9.20;90.20;;;;;;6338857;22;20027;-80
2022/12/22 03:31:42;;;;;;;35.83;23.63;;;9.20;90.20;;;;;;6337923;22;20088;-80
2022/12/22 03:34:07;;;;;;;39.58;24.50;;;9.20;90.30;;;;;;6338886;22;19999;-80
2022/12/22 03:36:33;;;;;;;36.35;24.65;;;9.10;90.30;;;;;;6338588;22;20024;-80
2022/12/22 03:38:59;;;;;;;40.95;26.50;;;9.10;90.30;;;;;;6338655;22;20006;-80
2022/12/22 03:46:52;;;;;;;37.17;24.88;;;9.00;90.40;;;;;;6338971;22;20010;-80
2022/12/22 03:49:18;;;;;;;38.00;26.20;;;9.00;90.40;;;;;;6338772;22;20003;-81
2022/12/22 03:51:45;;;;;;;37.83;25.45;;;9.00;90.40;;;;;;6338034;22;20007;-81
2022/12/22 03:54:16;;;;;;;37.75;25.10;;;9.00;90.40;;;;;;6338116;22;20003;-80
2022/12/22 03:56:43;;;;;;;36.80;24.38;;;9.00;90.50;;;;;;6338004;22;20477;-80
2022/12/22 03:59:09;;;;;;;42.70;25.00;;;9.00;90.40;;;;;;6310750;22;20360;-80
2022/12/22 04:01:43;;;;;;;41.38;25.77;;;9.00;90.40;;;;;;6337418;22;20022;-80
2022/12/22 04:04:10;;;;;;;37.95;24.90;;;9.10;90.40;;;;;;6338087;22;20434;-80
2022/12/22 04:06:36;;;;;;;41.03;25.25;;;9.10;90.40;;;;;;6338007;22;19995;-79
2022/12/22 04:09:02;;;;;;;37.67;24.48;;;9.10;90.40;;;;;;6338553;22;20001;-79
2022/12/22 04:14:12;;;;;;;41.28;25.38;;;9.10;90.30;;;;;;6338192;22;20056;-79
2022/12/22 04:16:38;;;;;;;37.25;24.75;;;9.10;90.30;;;;;;6338182;22;20002;-80
2022/12/22 04:19:05;;;;;;;41.13;24.52;;;9.10;90.30;;;;;;6310280;22;20006;-80
2022/12/22 04:21:31;;;;;;;38.78;23.67;;;9.10;90.20;;;;;;6338107;22;19999;-80
2022/12/22 04:23:56;;;;;;;39.97;25.77;;;9.10;90.20;;;;;;6338633;22;20006;-80
2022/12/22 04:26:24;;;;;;;35.70;24.05;;;9.10;90.20;;;;;;6337871;22;19995;-80
2022/12/22 04:28:51;;;;;;;40.05;25.52;;;9.10;90.20;;;;;;6337587;22;19999;-80
2022/12/22 04:31:17;;;;;;;40.33;25.00;;;9.00;90.30;;;;;;6337877;22;20049;-81
2022/12/22 04:33:42;;;;;;;41.47;26.58;;;9.10;90.40;;;;;;6338200;22;20052;-80
2022/12/22 04:36:09;;;;;;;43.90;27.35;;;9.10;90.40;;;;;;6337921;22;20006;-78
2022/12/22 04:38:35;;;;;;;40.15;25.20;;;9.10;90.40;;;;;;6337840;22;20024;-79
2022/12/22 04:41:01;;;;;;;43.53;26.55;;;9.20;90.40;;;;;;6337555;22;20011;-79
2022/12/22 04:43:26;;;;;;;38.67;24.27;;;9.20;90.40;;;;;;6337739;22;20002;-79
2022/12/22 04:45:53;;;;;;;38.92;24.58;;;9.20;90.50;;;;;;6338135;22;19998;-79
2022/12/22 04:48:20;;;;;;;38.05;24.73;;;9.10;90.40;;;;;;6338548;22;20034;-79
2022/12/22 04:50:49;;;;;;;37.05;24.90;;;9.10;90.50;;;;;;6338123;22;20088;-80
2022/12/22 04:53:14;;;;;;;38.30;25.10;;;9.10;90.50;;;;;;6338149;22;20433;-79
2022/12/22 04:55:48;;;;;;;50.45;26.67;;;9.10;90.50;;;;;;6337200;22;20117;-79
2022/12/22 04:58:15;;;;;;;40.30;26.92;;;9.10;90.60;;;;;;6309479;22;20128;-79
2022/12/22 05:00:41;;;;;;;41.00;26.35;;;9.20;90.60;;;;;;6338145;22;20040;-79
2022/12/22 05:03:07;;;;;;;39.85;26.08;;;9.20;90.70;;;;;;6337244;22;20074;-79
2022/12/22 05:05:35;;;;;;;40.72;25.83;;;9.20;90.70;;;;;;6338225;22;20440;-79
2022/12/22 05:08:02;;;;;;;44.33;26.65;;;9.20;90.70;;;;;;6337132;22;19999;-80
2022/12/22 05:10:28;;;;;;;43.50;27.42;;;9.20;90.90;;;;;;6337876;22;20030;-79
2022/12/22 05:12:54;;;;;;;40.95;25.55;;;9.20;90.70;;;;;;6338020;22;19995;-80
2022/12/22 05:15:25;;;;;;;43.88;27.65;;;9.20;90.80;;;;;;6338197;22;19994;-79
2022/12/22 05:17:51;;;;;;;40.22;26.92;;;9.20;90.80;;;;;;6337876;22;19999;-80
2022/12/22 05:20:17;;;;;;;42.80;27.88;;;9.20;90.80;;;;;;6336650;22;20321;-80
2022/12/22 05:22:43;;;;;;;43.38;28.63;;;9.20;90.90;;;;;;6337058;22;20086;-80
2022/12/22 05:25:09;;;;;;;41.60;26.25;;;9.10;90.90;;;;;;6339341;22;20432;-80
2022/12/22 05:27:35;;;;;;;41.80;27.17;;;9.10;90.90;;;;;;6339728;22;19999;-79
2022/12/22 05:30:01;;;;;;;41.95;27.52;;;9.10;91.00;;;;;;6339518;22;20412;-79
2022/12/22 05:32:27;;;;;;;39.58;27.00;;;9.10;91.00;;;;;;6338793;22;20048;-78
2022/12/22 05:34:52;;;;;;;43.17;27.30;;;9.10;91.10;;;;;;6339684;22;20077;-79
2022/12/22 05:37:18;;;;;;;46.22;27.98;;;9.10;91.10;;;;;;6339673;22;20017;-79
2022/12/22 05:39:44;;;;;;;46.15;28.23;;;9.10;91.10;;;;;;6338904;22;20010;-79
2022/12/22 05:42:09;;;;;;;47.70;28.95;;;9.20;91.20;;;;;;6336650;22;20468;-79
2022/12/22 05:44:35;;;;;;;43.10;26.92;;;9.20;91.20;;;;;;6339914;22;19999;-79
2022/12/22 05:47:04;;;;;;;46.65;27.58;;;9.20;91.20;;;;;;6339522;22;20044;-79
2022/12/22 05:49:30;;;;;;;42.83;26.98;;;9.20;91.20;;;;;;6338396;22;20040;-79
2022/12/22 05:51:56;;;;;;;46.28;28.48;;;9.20;91.20;;;;;;6337115;22;20007;-79
2022/12/22 05:54:22;;;;;;;39.88;26.23;;;9.20;91.20;;;;;;6337860;22;20014;-80
2022/12/22 05:56:47;;;;;;;44.45;28.38;;;9.20;91.20;;;;;;6338962;22;20015;-80
2022/12/22 05:59:15;;;;;;;42.08;26.90;;;9.20;91.10;;;;;;6338469;22;20462;-80
2022/12/22 06:01:40;;;;;;;47.25;28.92;;;9.20;91.10;;;;;;6338508;22;20009;-79
2022/12/22 06:04:06;;;;;;;41.63;28.20;;;9.20;91.10;;;;;;6338202;22;20074;-81
2022/12/22 06:06:32;;;;;;;44.20;27.55;;;9.20;91.10;;;;;;6311597;22;20010;-79
2022/12/22 06:08:58;;;;;;;41.92;26.58;;;9.20;91.30;;;;;;6310511;22;20011;-71
2022/12/22 06:11:24;;;;;;;43.55;28.60;;;9.20;91.10;;;;;;6338358;22;20044;-77
2022/12/22 06:13:50;;;;;;;45.13;27.23;;;9.20;91.10;;;;;;6338904;22;20003;-77
2022/12/22 06:16:16;;;;;;;45.10;28.10;;;9.30;91.30;;;;;;6310531;22;20059;-76
2022/12/22 06:18:42;;;;;;;42.22;28.52;;;9.30;91.20;;;;;;6339187;22;20036;-75
2022/12/22 06:21:08;;;;;;;43.10;27.88;;;9.30;91.20;;;;;;6338630;22;20309;-75
2022/12/22 06:23:34;;;;;;;45.85;28.50;;;9.30;90.90;;;;;;6320660;22;20038;-80
2022/12/22 06:26:01;;;;;;;43.92;29.10;;;9.40;91.10;;;;;;6361720;22;20328;-82
2022/12/22 06:28:27;;;;;;;47.38;29.23;;;9.40;91.10;;;;;;6369055;22;19998;-80
2022/12/22 06:30:54;;;;;;;47.35;29.02;;;9.40;91.00;;;;;;6367653;22;20002;-80
2022/12/22 06:33:20;;;;;;;45.45;28.65;;;9.40;90.80;;;;;;6340016;22;20011;-83
2022/12/22 06:35:46;;;;;;;48.85;28.90;;;9.40;91.00;;;;;;6310775;22;20007;-80
2022/12/22 06:38:12;;;;;;;46.28;28.77;;;9.40;91.00;;;;;;6339108;22;20031;-81
2022/12/22 06:40:38;;;;;;;45.95;28.40;;;9.40;91.00;;;;;;6338319;22;20006;-81
2022/12/22 06:43:09;;;;;;;43.22;27.67;;;9.40;91.00;;;;;;6338069;22;20003;-81
2022/12/22 06:45:38;;;;;;;50.67;29.52;;;9.40;91.00;;;;;;6336766;22;20048;-81
2022/12/22 06:48:04;;;;;;;46.95;28.52;;;9.40;90.90;;;;;;6337766;22;19999;-80
2022/12/22 06:50:30;;;;;;;45.22;29.90;;;9.40;90.90;;;;;;6339110;22;19999;-82
2022/12/22 06:52:56;;;;;;;47.63;30.23;;;9.40;90.90;;;;;;6338205;22;20022;-81
2022/12/22 06:55:21;;;;;;;49.42;30.55;;;9.40;90.90;;;;;;6338894;22;19999;-81
2022/12/22 06:57:47;;;;;;;45.45;28.77;;;9.40;90.90;;;;;;6338883;22;20006;-80
2022/12/22 07:00:13;;;;;;;47.05;30.55;;;9.40;91.00;;;;;;6338755;22;20040;-81
2022/12/22 07:02:39;;;;;;;47.22;29.60;;;9.40;91.00;;;;;;6338325;22;20022;-80
2022/12/22 07:05:05;;;;;;;44.85;28.48;;;9.40;91.00;;;;;;6339042;22;20052;-80
2022/12/22 07:07:30;;;;;;;45.20;29.50;;;9.40;91.10;;;;;;6338913;22;20518;-82
2022/12/22 07:09:59;;;;;;;46.63;29.05;;;9.40;91.00;;;;;;6338665;22;19995;-83
2022/12/22 07:12:25;;;;;;;49.72;29.05;;;9.40;91.00;;;;;;6338649;22;20003;-82
2022/12/22 07:14:51;;;;;;;45.13;29.85;;;9.50;91.00;;;;;;6339692;22;20413;-79
2022/12/22 07:17:16;;;;;;;49.63;29.85;;;9.50;91.00;;;;;;6338596;22;20489;-81
2022/12/22 07:19:42;;;;;;;47.80;30.67;;;9.50;91.00;;;;;;6338947;22;20003;-77
2022/12/22 07:22:08;;;;;;;49.95;30.83;;;9.50;91.10;;;;;;6338688;22;19999;-82
2022/12/22 07:24:34;;;;;;;46.97;28.98;;;9.60;91.10;;;;;;6338750;22;20003;-82
2022/12/22 07:26:59;;;;;;;51.33;31.10;;;9.50;91.00;;;;;;6338252;22;20352;-81
2022/12/22 07:29:25;;;;;;;52.33;31.05;;;9.50;91.00;;;;;;6338755;22;19995;-81
2022/12/22 07:31:51;;;;;;;42.10;28.73;;;9.50;91.00;;;;;;6338477;22;20018;-79
2022/12/22 07:34:16;;;;;;;46.13;29.67;;;9.50;91.00;;;;;;6338672;22;20017;-78
2022/12/22 07:36:42;;;;;;;51.25;31.13;;;9.60;91.00;;;;;;6338050;22;20009;-79
2022/12/22 07:39:08;;;;;;;47.38;30.98;;;9.50;91.00;;;;;;6338373;22;20010;-78
2022/12/22 07:44:18;;;;;;;44.80;29.08;;;9.50;91.10;;;;;;6337735;22;20014;-78
2022/12/22 07:46:44;;;;;;;49.33;30.88;;;9.50;91.10;;;;;;6338599;22;20085;-78
2022/12/22 07:51:56;;;;;;;47.45;29.77;;;9.60;91.20;;;;;;6338206;22;20018;-79
2022/12/22 07:54:22;;;;;;;50.97;31.13;;;9.50;91.40;;;;;;6332154;22;20030;-79
2022/12/22 07:56:48;;;;;;;54.63;31.10;;;9.50;91.20;;;;;;6337559;22;20006;-79
2022/12/22 07:59:14;;;;;;;49.28;31.30;;;9.60;91.30;;;;;;6336633;22;20492;-79
2022/12/22 08:01:40;;;;;;;48.67;31.23;;;9.60;91.20;;;;;;6338197;22;20010;-78
2022/12/22 08:04:10;;;;;;;51.75;31.67;;;9.60;91.30;;;;;;6338677;22;19994;-79
2022/12/22 08:06:36;;;;;;;52.65;31.02;;;9.60;91.20;;;;;;6337965;22;20060;-78
2022/12/22 08:09:04;;;;;;;51.42;31.88;;;9.60;91.20;;;;;;6338643;22;20401;-79
2022/12/22 08:11:29;;;;;;;50.50;30.13;;;9.60;91.30;;;;;;6338281;22;20009;-79
2022/12/22 08:13:55;;;;;;;48.00;28.92;;;9.60;91.20;;;;;;6338350;22;20030;-79
2022/12/22 08:16:21;;;;;;;48.72;29.67;;;9.60;91.30;;;;;;6338404;22;20006;-80
2022/12/22 08:18:47;;;;;;;54.17;31.77;;;9.60;91.30;;;;;;6338634;22;20003;-80
2022/12/22 08:21:14;;;;;;;49.03;30.65;;;9.60;91.20;;;;;;6338452;22;20449;-80
2022/12/22 08:23:39;;;;;;;46.92;30.05;;;9.60;91.20;;;;;;6338675;22;20454;-80
2022/12/22 08:26:12;;;;;;;45.17;29.45;;;9.60;91.20;;;;;;6337698;22;20023;-80
2022/12/22 08:28:43;;;;;;;46.88;29.73;;;9.60;91.20;;;;;;6338395;22;20005;-79
2022/12/22 08:31:09;;;;;;;48.45;30.42;;;9.70;91.20;;;;;;6337984;22;19999;-79
2022/12/22 08:33:36;;;;;;;49.05;30.58;;;9.70;91.20;;;;;;6338156;22;20033;-81
2022/12/22 08:36:02;;;;;;;50.10;30.45;;;9.70;91.10;;;;;;6310419;22;20003;-79
2022/12/22 08:38:29;;;;;;;52.72;31.25;;;9.70;91.00;;;;;;6338405;22;20451;-80
2022/12/22 08:40:55;;;;;;;49.08;29.75;;;9.70;91.00;;;;;;6337444;22;20034;-80
2022/12/22 08:43:21;;;;;;;47.72;30.98;;;9.80;91.00;;;;;;6337940;22;19995;-81
2022/12/22 08:45:46;;;;;;;45.60;29.60;;;9.70;91.00;;;;;;6310550;22;20052;-81
2022/12/22 08:48:12;;;;;;;51.47;30.13;;;9.80;90.90;;;;;;6338459;22;20681;-80
2022/12/22 08:50:38;;;;;;;49.33;30.45;;;9.80;90.90;;;;;;6338106;22;20074;-81
2022/12/22 08:53:05;;;;;;;47.33;29.83;;;9.80;90.90;;;;;;6337525;22;20021;-80
2022/12/22 08:55:31;;;;;;;47.55;30.70;;;9.80;90.90;;;;;;6337480;22;20030;-79
2022/12/22 08:57:56;;;;;;;47.92;30.67;;;9.80;90.90;;;;;;6337853;22;20052;-81
2022/12/22 09:00:22;;;;;;;47.38;31.17;;;9.80;90.80;;;;;;6339874;22;20079;-80
2022/12/22 09:02:48;;;;;;;52.72;32.83;;;9.80;90.80;;;;;;6339897;22;20001;-81
2022/12/22 09:05:14;;;;;;;46.85;29.83;;;9.80;90.80;;;;;;6338125;22;19999;-80
2022/12/22 09:07:40;;;;;;;45.28;29.02;;;9.90;90.80;;;;;;6338980;22;20002;-80
2022/12/22 09:10:07;;;;;;;47.83;31.10;;;9.90;90.90;;;;;;6338747;22;20052;-81
2022/12/22 09:12:33;;;;;;;52.60;32.40;;;9.90;90.90;;;;;;6339210;22;20007;-80
2022/12/22 09:14:59;;;;;;;55.25;30.30;;;10.00;90.80;;;;;;6338872;22;20006;-80
2022/12/22 09:17:25;;;;;;;50.13;31.48;;;10.00;90.80;;;;;;6339454;22;20423;-80
2022/12/22 09:19:50;;;;;;;49.80;29.33;;;10.00;90.80;;;;;;6337864;22;20003;-79
2022/12/22 09:22:16;;;;;;;46.50;30.42;;;10.00;90.80;;;;;;6338892;22;20456;-80
2022/12/22 09:24:42;;;;;;;46.97;30.48;;;10.00;90.70;;;;;;6339920;22;19995;-80
2022/12/22 09:27:08;;;;;;;49.00;30.65;;;10.00;90.80;;;;;;6338894;22;19994;-79
2022/12/22 09:29:35;;;;;;;49.17;30.60;;;10.10;90.80;;;;;;6311909;22;20010;-80
2022/12/22 09:32:02;;;;;;;47.30;30.13;;;10.10;90.70;;;;;;6339981;22;20445;-81
2022/12/22 09:34:28;;;;;;;49.30;30.92;;;10.10;90.70;;;;;;6339939;22;19999;-81
2022/12/22 09:36:54;;;;;;;56.40;30.98;;;10.20;90.60;;;;;;6340304;22;20044;-82
2022/12/22 09:39:19;;;;;;;47.75;30.80;;;10.20;90.50;;;;;;6339042;22;20086;-82
2022/12/22 09:41:55;;;;;;;44.88;29.35;;;10.20;90.40;;;;;;6340180;22;20007;-82
2022/12/22 09:44:33;;;;;;;50.10;30.80;;;10.30;90.40;;;;;;6340169;22;20037;-82
2022/12/22 09:47:02;;;;;;;43.25;28.70;;;10.30;90.10;;;;;;6340281;22;19995;-82
2022/12/22 09:49:28;;;;;;;46.27;29.67;;;10.20;89.60;;;;;;6340488;22;19999;-82
2022/12/22 09:52:02;;;;;;;49.42;31.02;;;10.20;90.10;;;;;;6340253;22;20014;-82
2022/12/22 09:54:29;;;;;;;47.63;29.40;;;10.10;90.10;;;;;;6340169;22;20413;-82
2022/12/22 09:56:56;;;;;;;50.47;30.58;;;10.10;90.10;;;;;;6340256;22;20298;-82
2022/12/22 09:59:26;;;;;;;46.03;30.25;;;10.10;90.20;;;;;;6339987;22;20417;-83
2022/12/22 10:02:20;;;;;;;47.17;30.58;;;10.10;90.30;;;;;;6340396;22;20384;-82
2022/12/22 10:05:04;;;;;;;49.00;30.30;;;10.10;90.40;;;;;;6312323;22;20026;-82
2022/12/22 10:07:41;;;;;;;44.92;30.13;;;10.20;90.40;;;;;;6339820;22;20052;-82
2022/12/22 10:10:28;;;;;;;48.05;30.63;;;10.20;90.50;;;;;;6338047;22;20005;-83
2022/12/22 10:12:59;;;;;;;52.90;31.67;;;10.20;90.40;;;;;;6339870;22;20011;-83
2022/12/22 10:15:26;;;;;;;52.30;31.75;;;10.30;90.40;;;;;;6340613;22;20030;-84
2022/12/22 10:18:06;;;;;;;47.90;31.02;;;10.30;90.30;;;;;;6339389;22;20316;-82
2022/12/22 10:20:32;;;;;;;;;;;10.30;90.30;;;;;;6334654;22;19999;-83
2022/12/22 10:23:13;;;;;;;48.95;30.67;;;10.30;90.30;;;;;;6337830;22;19898;-83
2022/12/22 10:26:03;;;;;;;46.22;30.17;;;10.40;90.30;;;;;;6337474;22;20003;-82
2022/12/22 10:28:44;;;;;;;47.45;29.55;;;10.30;90.20;;;;;;6337294;22;20017;-80
2022/12/22 10:31:19;;;;;;;52.45;31.30;;;10.40;90.30;;;;;;6337587;22;20125;-80
2022/12/22 10:33:46;;;;;;;52.60;32.38;;;10.40;90.30;;;;;;6338347;22;20107;-80
2022/12/22 10:36:14;;;;;;;52.38;31.42;;;10.40;90.20;;;;;;6338994;22;20019;-80
2022/12/22 10:38:55;;;;;;;47.38;31.58;;;10.40;90.20;;;;;;6338655;22;20003;-80
2022/12/22 10:41:24;;;;;;;49.78;31.52;;;10.40;90.20;;;;;;6338214;22;19999;-80
2022/12/22 10:43:56;;;;;;;53.28;33.95;;;10.50;90.20;;;;;;6338651;22;20487;-81
2022/12/22 10:46:53;;;;;;;48.70;31.20;;;10.50;90.20;;;;;;6338247;22;19995;-81
2022/12/22 10:49:29;;;;;;;50.65;31.00;;;10.60;90.20;;;;;;6337774;22;20026;-81
2022/12/22 10:52:13;;;;;;;51.78;32.38;;;10.60;90.10;;;;;;6338256;22;19999;-81
2022/12/22 10:54:42;;;;;;;50.92;33.65;;;10.70;90.10;;;;;;6338728;22;20104;-81
2022/12/22 10:57:15;;;;;;;50.90;32.65;;;10.70;90.00;;;;;;6339010;22;20005;-81
2022/12/22 10:59:54;;;;;;;48.55;31.35;;;10.70;90.00;;;;;;6338979;22;20073;-81
2022/12/22 11:02:19;;;;;;;48.15;31.60;;;10.70;89.70;;;;;;6339114;22;19998;-81
2022/12/22 11:04:46;;;;;;;48.70;32.28;;;10.70;89.60;;;;;;6338628;22;20013;-81
2022/12/22 11:07:12;;;;;;;49.28;32.25;;;10.80;89.60;;;;;;6339269;22;20003;-80
2022/12/22 11:09:38;;;;;;;52.05;32.72;;;10.70;89.30;;;;;;6339409;22;19994;-81
2022/12/22 11:12:19;;;;;;;53.63;32.03;;;10.80;89.30;;;;;;6339449;22;20063;-81
2022/12/22 11:14:53;;;;;;;50.63;32.85;;;10.80;89.20;;;;;;6339085;22;20014;-84
2022/12/22 11:17:37;;;;;;;47.28;31.95;;;10.80;89.00;;;;;;6339602;22;20016;-84
2022/12/22 11:20:29;;;;;;;48.28;31.77;;;10.80;89.00;;;;;;6339613;22;20002;-82
2022/12/22 11:23:12;;;;;;;43.97;29.92;;;10.80;89.00;;;;;;6339071;22;20005;-82
2022/12/22 11:25:58;;;;;;;45.67;30.27;;;10.80;89.00;;;;;;6338758;22;19998;-81
2022/12/22 11:29:03;;;;;;;48.80;31.88;;;10.80;88.50;;;;;;6315518;22;20002;-82
2022/12/22 11:31:34;;;;;;;53.65;33.42;;;10.80;88.90;;;;;;6292265;22;20059;-83
2022/12/22 11:34:34;;;;;;;47.45;30.75;;;10.80;89.00;;;;;;6340637;22;20037;-83
2022/12/22 11:37:24;;;;;;;55.67;34.20;;;10.80;89.20;;;;;;6338933;22;20006;-82
2022/12/22 11:39:52;;;;;;;;;;;10.80;89.10;;;;;;6338997;22;20003;-82
2022/12/22 11:42:34;;;;;;;46.75;31.50;;;10.80;89.20;;;;;;6338821;22;19902;-82
2022/12/22 11:45:18;;;;;;;53.22;32.30;;;10.80;89.40;;;;;;6339635;22;19998;-82
2022/12/22 11:48:01;;;;;;;57.70;33.70;;;10.80;89.50;;;;;;6338995;22;19998;-82
2022/12/22 11:50:47;;;;;;;48.25;30.35;;;10.80;89.40;;;;;;6338650;22;19999;-82
2022/12/22 11:53:55;;;;;;;47.72;30.65;;;10.90;89.40;;;;;;6339186;22;20320;-82
2022/12/22 11:56:37;;;;;;;48.83;31.38;;;10.90;88.90;;;;;;6338888;22;20003;-82
2022/12/22 11:59:21;;;;;;;47.42;30.38;;;10.90;88.60;;;;;;6311861;22;20051;-83
2022/12/22 12:01:58;;;;;;;48.20;31.05;;;10.90;88.80;;;;;;6339280;22;20006;-83
2022/12/22 12:04:24;;;;;;;50.50;30.88;;;10.90;88.70;;;;;;6338462;22;20007;-83
2022/12/22 12:07:35;;;;;;;42.95;29.38;;;10.90;88.00;;;;;;6310675;22;20473;-83
2022/12/22 12:10:00;;;;;;;;;;;10.90;88.20;;;;;;6228267;22;20036;-80
2022/12/22 12:12:40;;;;;;;44.75;28.65;;;10.90;88.10;;;;;;6339679;22;19914;-80
2022/12/22 12:15:36;;;;;;;44.28;28.17;;;11.00;88.20;;;;;;6338661;22;20002;-80
2022/12/22 12:18:39;;;;;;;46.90;31.00;;;11.00;88.10;;;;;;6338553;22;20002;-81
2022/12/22 12:21:33;;;;;;;47.55;30.60;;;11.20;88.10;;;;;;6338306;22;20038;-81
2022/12/22 12:24:11;;;;;;;49.28;31.45;;;11.30;88.20;;;;;;6338733;22;20074;-80
2022/12/22 12:26:46;;;;;;;49.55;32.17;;;11.40;87.90;;;;;;6339030;22;20052;-80
2022/12/22 12:29:23;;;;;;;47.13;30.60;;;11.50;87.60;;;;;;6310862;22;20018;-80
2022/12/22 12:32:26;;;;;;;47.60;32.17;;;11.50;87.10;;;;;;6338174;22;20007;-80
2022/12/22 12:35:02;;;;;;;43.83;29.52;;;11.70;87.00;;;;;;6338243;22;19999;-81
2022/12/22 12:37:32;;;;;;;47.53;30.60;;;11.70;86.30;;;;;;6338534;22;20019;-80
2022/12/22 12:41:02;;;;;;;47.35;29.63;;;11.80;86.10;;;;;;6338372;22;20003;-80
2022/12/22 12:43:28;;;;;;;43.72;29.70;;;11.90;85.90;;;;;;6212343;23;20079;-81
2022/12/22 12:45:54;;;;;;;42.45;29.88;;;12.20;85.90;;;;;;6285455;22;20006;-80
2022/12/22 12:48:19;;;;;;;47.70;31.83;;;12.60;85.50;;;;;;6338948;22;20005;-80
2022/12/22 12:50:46;;;;;;;49.20;31.58;;;12.80;84.10;;;;;;6338707;22;20440;-80
2022/12/22 12:53:12;;;;;;;48.75;32.58;;;13.00;83.60;;;;;;6338380;22;20473;-81
2022/12/22 12:55:51;;;;;;;49.10;32.53;;;13.30;83.50;;;;;;6338012;22;20037;-81
2022/12/22 12:58:37;;;;;;;50.97;33.60;;;13.60;82.90;;;;;;6338307;22;20033;-81
2022/12/22 13:01:08;;;;;;;44.83;30.98;;;13.90;82.20;;;;;;6338114;22;20006;-80
2022/12/22 13:03:40;;;;;;;44.67;31.63;;;14.10;81.30;;;;;;6310350;22;20009;-81
2022/12/22 13:06:08;;;;;;;48.40;32.42;;;14.30;80.40;;;;;;6338202;22;19995;-80
2022/12/22 13:09:05;;;;;;;45.72;29.70;;;14.40;79.40;;;;;;6338402;22;19994;-81
2022/12/22 13:11:36;;;;;;;42.75;29.60;;;14.20;78.50;;;;;;6338155;22;19998;-80
2022/12/22 13:14:02;;;;;;;45.97;29.63;;;14.10;78.10;;;;;;6338554;22;20066;-81
2022/12/22 13:16:31;;;;;;;46.20;30.38;;;13.90;78.00;;;;;;6338446;22;20002;-80
2022/12/22 13:18:58;;;;;;;42.78;29.73;;;13.70;78.40;;;;;;6338372;22;19999;-80
2022/12/22 13:21:28;;;;;;;41.85;28.73;;;13.50;78.80;;;;;;6338329;22;20011;-80
2022/12/22 13:23:53;;;;;;;51.90;30.87;;;13.30;79.40;;;;;;6311112;22;20009;-79
2022/12/22 13:26:34;;;;;;;45.85;31.10;;;13.30;79.90;;;;;;6337544;22;19999;-81
2022/12/22 13:29:12;;;;;;;46.92;30.30;;;13.10;80.20;;;;;;6338234;22;20401;-80
2022/12/22 13:31:41;;;;;;;45.50;29.33;;;13.00;80.60;;;;;;6336370;22;20049;-81
2022/12/22 13:34:36;;;;;;;47.88;30.15;;;12.80;80.80;;;;;;6336032;22;20027;-80
2022/12/22 13:37:22;;;;;;;45.00;30.25;;;12.70;81.10;;;;;;6282174;22;20018;-80
2022/12/22 13:40:06;;;;;;;49.38;31.05;;;12.50;81.30;;;;;;6336536;22;20321;-81
2022/12/22 13:42:40;;;;;;;46.15;29.83;;;12.40;81.40;;;;;;6336275;22;20007;-80
2022/12/22 13:45:32;;;;;;;45.35;29.98;;;12.30;82.20;;;;;;6336710;22;19999;-81
2022/12/22 13:48:24;;;;;;;44.65;31.08;;;12.10;82.20;;;;;;6338184;22;19995;-82
2022/12/22 13:50:52;;;;;;;47.13;30.90;;;12.00;82.50;;;;;;6339244;22;20317;-81
2022/12/22 13:53:42;;;;;;;42.95;29.33;;;12.00;83.10;;;;;;6310283;22;20094;-83
2022/12/22 13:56:15;;;;;;;48.53;31.40;;;12.00;83.30;;;;;;6339223;22;20048;-82
2022/12/22 13:58:44;;;;;;;45.45;30.20;;;11.90;83.50;;;;;;6338482;22;20007;-82
2022/12/22 14:01:25;;;;;;;44.22;29.73;;;;;;;;;;6338747;22;20003;-81
2022/12/22 14:03:58;;;;;;;46.15;30.08;;;11.80;83.30;;;;;;6338620;22;20124;-81
2022/12/22 14:06:31;;;;;;;46.92;30.63;;;11.70;83.80;;;;;;6311683;22;20007;-80
2022/12/22 14:09:18;;;;;;;48.78;31.33;;;11.80;84.10;;;;;;6337651;22;20068;-81
2022/12/22 14:12:06;;;;;;;46.47;31.60;;;11.70;84.10;;;;;;6339218;22;20117;-81
2022/12/22 14:14:41;;;;;;;54.13;33.58;;;11.70;84.80;;;;;;6311601;22;20006;-83
2022/12/22 14:17:34;;;;;;;55.00;34.70;;;11.60;84.80;;;;;;6339510;22;20009;-84
2022/12/22 14:20:18;;;;;;;53.88;33.70;;;11.70;85.30;;;;;;6338987;22;20006;-82
2022/12/22 14:22:52;;;;;;;57.30;34.25;;;11.70;85.70;;;;;;6339193;22;20003;-82
2022/12/22 14:25:23;;;;;;;59.15;35.38;;;11.60;85.80;;;;;;6338829;22;19999;-83
2022/12/22 14:27:54;;;;;;;51.97;34.70;;;11.60;86.00;;;;;;6340230;22;19995;-83
2022/12/22 14:30:33;;;;;;;57.33;35.58;;;11.60;86.10;;;;;;6311504;22;20329;-83
2022/12/22 14:33:16;;;;;;;52.10;35.33;;;11.60;86.70;;;;;;6339293;22;20426;-83
2022/12/22 14:35:41;;;;;;;56.20;35.85;;;11.40;86.80;;;;;;6339186;22;20010;-83
2022/12/22 14:38:22;;;;;;;60.22;35.25;;;11.40;87.20;;;;;;6311917;22;20003;-83
2022/12/22 14:40:49;;;;;;;55.80;34.63;;;11.30;87.50;;;;;;6340074;22;20074;-83
2022/12/22 14:43:18;;;;;;;54.55;36.20;;;11.30;87.70;;;;;;6340042;22;19999;-83
2022/12/22 14:45:49;;;;;;;54.10;36.08;;;11.30;88.20;;;;;;6339104;22;19998;-82
2022/12/22 14:48:29;;;;;;;53.30;35.70;;;11.30;88.10;;;;;;6339087;22;20052;-83
2022/12/22 14:50:55;;;;;;;58.45;35.35;;;11.30;88.50;;;;;;6339526;22;20002;-83
2022/12/22 14:53:45;;;;;;;59.30;37.45;;;11.20;88.50;;;;;;6311948;22;20090;-83
2022/12/22 14:56:13;;;;;;;53.65;34.75;;;11.20;88.70;;;;;;6247324;22;20013;-82
2022/12/22 14:58:42;;;;;;;55.45;35.28;;;11.10;88.50;;;;;;6338523;22;20005;-82
2022/12/22 15:01:29;;;;;;;60.17;38.40;;;10.90;88.50;;;;;;6312330;22;20009;-83
2022/12/22 15:03:58;;;;;;;57.05;36.08;;;;;;;;;;6311665;22;20034;-82
2022/12/22 15:06:27;;;;;;;59.03;36.88;;;11.00;88.90;;;;;;6307721;22;20011;-83
2022/12/22 15:09:05;;;;;;;59.78;36.45;;;10.90;89.20;;;;;;6339378;22;20068;-83
2022/12/22 15:11:32;;;;;;;68.35;37.88;;;10.90;89.60;;;;;;6311738;22;20310;-83
2022/12/22 15:14:00;;;;;;;57.33;35.75;;;10.90;89.70;;;;;;6339211;22;20003;-82
2022/12/22 15:16:26;;;;;;;56.03;36.72;;;10.90;89.70;;;;;;6338957;22;20006;-82
2022/12/22 15:18:52;;;;;;;58.00;37.75;;;10.90;89.50;;;;;;6339015;22;20006;-82
2022/12/22 15:21:19;;;;;;;60.42;37.72;;;10.80;89.50;;;;;;6339329;22;20081;-83
2022/12/22 15:23:45;;;;;;;56.55;37.58;;;10.90;90.00;;;;;;6339644;22;20002;-83
2022/12/22 15:26:11;;;;;;;60.90;38.58;;;10.80;89.70;;;;;;6310917;22;20314;-83
2022/12/22 15:28:37;;;;;;;57.33;36.67;;;10.80;90.10;;;;;;6339210;22;19998;-83
2022/12/22 15:31:11;;;;;;;58.42;36.72;;;10.70;89.90;;;;;;6339300;22;20306;-82
2022/12/22 15:33:37;;;;;;;60.30;37.88;;;10.80;90.00;;;;;;6339337;22;20015;-82
2022/12/22 15:36:03;;;;;;;53.03;35.30;;;10.70;90.10;;;;;;6335555;22;20428;-83
2022/12/22 15:38:28;;;;;;;56.75;36.30;;;10.70;90.20;;;;;;6337582;22;20069;-83
2022/12/22 15:40:54;;;;;;;59.03;37.22;;;10.70;90.00;;;;;;6331789;22;20991;-84
2022/12/22 15:43:20;;;;;;;58.15;38.03;;;10.70;90.30;;;;;;6337650;22;19995;-83
2022/12/22 15:45:45;;;;;;;58.78;36.97;;;10.60;90.10;;;;;;6335410;22;19999;-82
2022/12/22 15:48:32;;;;;;;57.05;38.60;;;10.60;90.30;;;;;;6337746;22;20007;-82
2022/12/22 15:51:01;;;;;;;57.75;37.20;;;10.60;90.40;;;;;;6338412;22;20002;-82
2022/12/22 15:53:27;;;;;;;60.42;38.35;;;10.50;90.30;;;;;;6337748;22;20425;-82
2022/12/22 15:55:54;;;;;;;57.88;37.22;;;10.50;90.30;;;;;;6336760;22;20006;-82
2022/12/22 15:58:27;;;;;;;60.65;38.35;;;10.40;90.30;;;;;;6333246;22;20009;-81
2022/12/22 16:00:53;;;;;;;60.40;37.17;;;10.40;90.30;;;;;;6306886;22;20013;-82
2022/12/22 16:03:19;;;;;;;62.88;38.55;;;10.40;90.60;;;;;;6335162;22;20003;-82
2022/12/22 16:05:45;;;;;;;61.40;37.40;;;10.40;90.60;;;;;;6335091;22;20006;-82
2022/12/22 16:08:17;;;;;;;58.47;37.78;;;10.40;90.40;;;;;;6334268;22;20017;-83
2022/12/22 16:10:43;;;;;;;62.00;39.65;;;10.30;90.60;;;;;;6334826;22;20362;-84
2022/12/22 16:13:12;;;;;;;59.72;37.33;;;10.30;90.60;;;;;;6337720;22;20045;-82
2022/12/22 16:15:38;;;;;;;61.38;38.13;;;10.30;90.50;;;;;;6307716;22;20444;-83
2022/12/22 16:18:05;;;;;;;57.08;37.40;;;10.30;90.70;;;;;;6334963;22;19999;-83
2022/12/22 16:20:36;;;;;;;61.53;39.38;;;10.30;90.60;;;;;;6335431;22;19998;-83
2022/12/22 16:23:03;;;;;;;66.07;39.25;;;10.30;90.80;;;;;;6335529;22;20088;-85
2022/12/22 16:25:34;;;;;;;60.50;36.53;;;10.20;90.70;;;;;;6335320;22;20020;-85
2022/12/22 16:28:00;;;;;;;57.10;37.30;;;10.20;90.60;;;;;;6334756;22;20003;-85
2022/12/22 16:30:29;;;;;;;61.53;38.35;;;10.20;90.60;;;;;;6334541;22;20003;-85
2022/12/22 16:32:55;;;;;;;56.28;37.63;;;;;;;;;;6334650;22;20105;-83